createdAt,value
2023-04-20T00:02:03.356Z,73.67
2023-04-20T00:04:32.207Z,73.67
2023-04-20T00:07:01.283Z,73.58
2023-04-20T00:09:30.085Z,73.56
2023-04-20T00:12:00.064Z,73.91
2023-04-20T00:14:28.934Z,73.67
2023-04-20T00:16:57.914Z,73.48
2023-04-20T00:19:29.007Z,73.48
2023-04-20T00:21:57.741Z,73.70
2023-04-20T00:24:26.726Z,73.55
2023-04-20T00:26:55.798Z,74.02
2023-04-20T00:29:25.606Z,73.85
2023-04-20T00:31:54.447Z,73.94
2023-04-20T00:34:23.127Z,73.91
2023-04-20T00:36:52.362Z,74.38
2023-04-20T00:39:21.260Z,75.10
2023-04-20T00:41:49.991Z,75.62
2023-04-20T00:44:18.784Z,75.68
2023-04-20T00:46:48.814Z,76.30
2023-04-20T00:49:19.387Z,76.72
2023-04-20T00:51:50.024Z,77.47
2023-04-20T00:54:18.856Z,77.62
2023-04-20T00:56:47.692Z,77.63
2023-04-20T00:59:16.960Z,77.78
2023-04-20T01:01:48.231Z,78.07
2023-04-20T01:04:17.300Z,78.23
2023-04-20T01:06:46.384Z,78.25
2023-04-20T01:09:16.784Z,78.67
2023-04-20T01:11:46.712Z,78.78
2023-04-20T01:14:18.974Z,78.71
2023-04-20T01:16:47.708Z,79.17
2023-04-20T01:19:16.775Z,78.85
2023-04-20T01:21:46.082Z,79.01
2023-04-20T01:24:14.969Z,78.96
2023-04-20T01:26:43.644Z,78.76
2023-04-20T01:29:12.370Z,78.92
2023-04-20T01:31:41.037Z,78.77
2023-04-20T01:34:09.960Z,78.61
2023-04-20T01:36:38.695Z,78.40
2023-04-20T01:39:09.785Z,78.36
2023-04-20T01:41:40.301Z,77.94
2023-04-20T01:44:09.253Z,77.86
2023-04-20T01:46:40.203Z,77.89
2023-04-20T01:49:09.337Z,78.15
2023-04-20T01:51:38.393Z,78.08
2023-04-20T01:54:07.324Z,77.81
2023-04-20T01:56:36.365Z,78.20
2023-04-20T01:59:05.044Z,78.15
2023-04-20T02:01:35.588Z,78.19
2023-04-20T02:04:04.293Z,78.38
2023-04-20T02:06:33.548Z,78.34
2023-04-20T02:09:02.262Z,78.60
2023-04-20T02:11:30.930Z,78.57
2023-04-20T02:13:59.715Z,78.69
2023-04-20T02:16:31.986Z,78.62
2023-04-20T02:19:01.501Z,78.85
2023-04-20T02:21:30.169Z,78.51
2023-04-20T02:23:59.170Z,78.31
2023-04-20T02:26:29.312Z,77.93
2023-04-20T02:28:57.823Z,77.79
2023-04-20T02:31:28.334Z,77.56
2023-04-20T02:33:57.076Z,77.12
2023-04-20T02:36:30.446Z,77.14
2023-04-20T02:38:59.259Z,76.99
2023-04-20T02:41:28.676Z,76.89
2023-04-20T02:43:57.645Z,76.80
2023-04-20T02:46:28.995Z,76.77
2023-04-20T02:48:57.987Z,76.14
2023-04-20T02:51:27.467Z,76.28
2023-04-20T02:53:56.191Z,76.12
2023-04-20T02:56:29.703Z,76.27
2023-04-20T02:59:02.656Z,75.25
2023-04-20T03:01:54.307Z,75.63
2023-04-20T03:04:24.466Z,75.81
2023-04-20T03:07:19.232Z,75.59
2023-04-20T03:09:48.960Z,75.27
2023-04-20T03:12:24.709Z,75.57
2023-04-20T03:15:02.416Z,75.02
2023-04-20T03:18:04.295Z,74.98
2023-04-20T03:20:33.992Z,75.06
2023-04-20T03:23:02.761Z,75.21
2023-04-20T03:25:32.541Z,75.30
2023-04-20T03:28:04.543Z,75.30
2023-04-20T03:30:33.795Z,75.35
2023-04-20T03:33:09.082Z,75.10
2023-04-20T03:35:39.656Z,75.21
2023-04-20T03:38:08.456Z,75.44
2023-04-20T03:40:38.583Z,75.21
2023-04-20T03:43:07.864Z,75.11
2023-04-20T03:45:36.888Z,74.94
2023-04-20T03:48:05.745Z,75.15
2023-04-20T03:50:35.083Z,75.40
2023-04-20T03:53:03.643Z,75.63
2023-04-20T03:55:33.058Z,75.36
2023-04-20T03:58:06.061Z,75.73
2023-04-20T04:00:43.893Z,76.10
2023-04-20T04:03:13.342Z,76.90
2023-04-20T04:05:42.784Z,77.23
2023-04-20T04:08:12.359Z,77.75
2023-04-20T04:10:41.075Z,78.68
2023-04-20T04:13:12.112Z,79.14
2023-04-20T04:15:40.957Z,79.89
2023-04-20T04:18:12.798Z,79.94
2023-04-20T04:20:42.023Z,80.57
2023-04-20T04:23:12.283Z,81.14
2023-04-20T04:25:54.477Z,81.72
2023-04-20T04:28:25.287Z,82.43
2023-04-20T04:31:14.557Z,83.71
2023-04-20T04:33:43.363Z,84.13
2023-04-20T04:36:12.758Z,84.86
2023-04-20T04:38:45.200Z,85.68
2023-04-20T04:41:14.322Z,86.87
2023-04-20T04:43:43.488Z,87.30
2023-04-20T04:46:22.003Z,87.78
2023-04-20T04:48:52.258Z,88.74
2023-04-20T04:51:21.179Z,90.36
2023-04-20T04:53:51.359Z,94.35
2023-04-20T04:56:21.078Z,96.81
2023-04-20T04:58:49.859Z,98.55
2023-04-20T05:01:18.718Z,99.79
2023-04-20T05:03:47.687Z,100.00
2023-04-20T05:06:16.741Z,100.00
2023-04-20T05:08:46.463Z,100.00
2023-04-20T05:11:15.691Z,100.00
2023-04-20T05:13:44.349Z,100.00
2023-04-20T05:16:14.085Z,100.00
2023-04-20T05:18:42.880Z,100.00
2023-04-20T05:21:11.627Z,100.00
2023-04-20T05:23:40.439Z,100.00
2023-04-20T05:26:09.107Z,100.00
2023-04-20T05:28:38.091Z,100.00
2023-04-20T05:31:08.594Z,100.00
2023-04-20T05:33:37.270Z,100.00
2023-04-20T05:36:09.053Z,100.00
2023-04-20T05:38:38.349Z,100.00
2023-04-20T05:41:07.764Z,100.00
2023-04-20T05:43:36.641Z,100.00
2023-04-20T05:46:05.722Z,100.00
2023-04-20T05:48:34.770Z,100.00
2023-04-20T05:51:03.515Z,100.00
2023-04-20T05:53:32.271Z,100.00
2023-04-20T05:56:01.094Z,100.00
2023-04-20T05:58:30.633Z,100.00
2023-04-20T06:00:59.308Z,100.00
2023-04-20T06:03:28.261Z,100.00
2023-04-20T06:05:57.154Z,100.00
2023-04-20T06:08:26.420Z,100.00
2023-04-20T06:10:56.413Z,100.00
2023-04-20T06:13:25.505Z,100.00
2023-04-20T06:15:54.503Z,100.00
2023-04-20T06:18:23.763Z,100.00
2023-04-20T06:20:52.352Z,100.00
2023-04-20T06:23:21.959Z,100.00
2023-04-20T06:25:50.652Z,100.00
2023-04-20T06:28:19.819Z,100.00
2023-04-20T06:30:48.578Z,100.00
2023-04-20T06:33:17.869Z,100.00
2023-04-20T06:35:46.928Z,100.00
2023-04-20T06:38:15.730Z,100.00
2023-04-20T06:40:44.326Z,100.00
2023-04-20T06:43:13.314Z,100.00
2023-04-20T06:45:42.215Z,100.00
2023-04-20T06:48:24.023Z,100.00
2023-04-20T06:51:00.159Z,100.00
2023-04-20T06:53:30.541Z,100.00
2023-04-20T06:55:59.348Z,100.00
2023-04-20T06:58:28.300Z,100.00
2023-04-20T07:00:57.110Z,100.00
2023-04-20T07:03:25.953Z,100.00
2023-04-20T07:05:55.831Z,100.00
2023-04-20T07:08:24.658Z,100.00
2023-04-20T07:10:53.429Z,99.81
2023-04-20T07:13:22.412Z,98.80
2023-04-20T07:15:51.657Z,98.16
2023-04-20T07:18:20.588Z,97.17
2023-04-20T07:20:49.413Z,96.50
2023-04-20T07:23:18.100Z,96.40
2023-04-20T07:25:46.734Z,95.62
2023-04-20T07:28:15.447Z,95.25
2023-04-20T07:30:44.325Z,94.23
2023-04-20T07:33:12.940Z,93.99
2023-04-20T07:35:41.739Z,93.70
2023-04-20T07:38:11.135Z,94.58
2023-04-20T07:40:39.789Z,96.64
2023-04-20T07:43:08.563Z,98.88
2023-04-20T07:45:41.817Z,99.94
2023-04-20T07:48:12.847Z,100.00
2023-04-20T07:50:41.635Z,100.00
2023-04-20T07:53:10.407Z,100.00
2023-04-20T07:55:39.113Z,100.00
2023-04-20T07:58:07.798Z,100.00
2023-04-20T08:00:36.474Z,100.00
2023-04-20T08:03:05.605Z,100.00
2023-04-20T08:05:34.465Z,100.00
2023-04-20T08:08:03.224Z,100.00
2023-04-20T08:10:32.479Z,100.00
2023-04-20T08:13:01.558Z,100.00
2023-04-20T08:15:30.329Z,100.00
2023-04-20T08:17:59.404Z,100.00
2023-04-20T08:20:28.283Z,100.00
2023-04-20T08:22:57.056Z,100.00
2023-04-20T08:25:27.263Z,100.00
2023-04-20T08:27:56.677Z,100.00
2023-04-20T08:30:27.002Z,100.00
2023-04-20T08:32:56.466Z,100.00
2023-04-20T08:35:25.470Z,100.00
2023-04-20T08:37:54.619Z,100.00
2023-04-20T08:40:24.836Z,100.00
2023-04-20T08:42:53.511Z,100.00
2023-04-20T08:45:22.222Z,100.00
2023-04-20T08:47:51.071Z,100.00
2023-04-20T08:50:20.123Z,100.00
2023-04-20T08:52:48.967Z,100.00
2023-04-20T08:55:20.932Z,100.00
2023-04-20T08:57:52.294Z,100.00
2023-04-20T09:00:21.946Z,100.00
2023-04-20T09:02:52.104Z,100.00
2023-04-20T09:05:28.406Z,100.00
2023-04-20T09:08:01.716Z,100.00
2023-04-20T09:10:39.477Z,100.00
2023-04-20T09:13:08.319Z,100.00
2023-04-20T09:15:36.882Z,100.00
2023-04-20T09:18:12.741Z,100.00
2023-04-20T09:20:41.484Z,100.00
2023-04-20T09:23:14.250Z,100.00
2023-04-20T09:25:44.158Z,100.00
2023-04-20T09:28:13.784Z,100.00
2023-04-20T09:30:43.532Z,100.00
2023-04-20T09:33:13.053Z,100.00
2023-04-20T09:35:42.614Z,100.00
2023-04-20T09:38:12.837Z,100.00
2023-04-20T09:40:41.576Z,100.00
2023-04-20T09:43:15.302Z,100.00
2023-04-20T09:45:44.333Z,100.00
2023-04-20T09:48:17.415Z,100.00
2023-04-20T09:50:49.953Z,100.00
2023-04-20T09:53:20.311Z,100.00
2023-04-20T09:55:49.855Z,100.00
2023-04-20T09:58:20.969Z,100.00
2023-04-20T10:00:50.269Z,100.00
2023-04-20T10:03:20.248Z,100.00
2023-04-20T10:05:50.126Z,100.00
2023-04-20T10:08:20.927Z,100.00
2023-04-20T10:10:50.111Z,100.00
2023-04-20T10:13:23.624Z,100.00
2023-04-20T10:15:52.392Z,100.00
2023-04-20T10:18:24.173Z,100.00
2023-04-20T10:21:04.174Z,100.00
2023-04-20T10:23:32.945Z,100.00
2023-04-20T10:26:03.345Z,100.00
2023-04-20T10:28:40.590Z,100.00
2023-04-20T10:31:13.472Z,100.00
2023-04-20T10:33:51.398Z,100.00
2023-04-20T10:36:38.594Z,100.00
2023-04-20T10:39:20.941Z,100.00
2023-04-20T10:41:59.042Z,100.00
2023-04-20T10:44:28.118Z,100.00
2023-04-20T10:46:56.928Z,100.00
2023-04-20T10:49:29.668Z,100.00
2023-04-20T10:51:58.809Z,100.00
2023-04-20T10:54:27.472Z,100.00
2023-04-20T10:56:56.107Z,100.00
2023-04-20T10:59:25.503Z,100.00
2023-04-20T11:01:55.943Z,100.00
2023-04-20T11:04:32.814Z,100.00
2023-04-20T11:07:05.995Z,100.00
2023-04-20T11:09:35.066Z,100.00
2023-04-20T11:12:05.457Z,100.00
2023-04-20T11:14:34.935Z,100.00
2023-04-20T11:17:03.984Z,100.00
2023-04-20T11:19:34.414Z,100.00
2023-04-20T11:22:03.624Z,100.00
2023-04-20T11:24:34.235Z,100.00
2023-04-20T11:27:03.378Z,100.00
2023-04-20T11:29:36.472Z,100.00
2023-04-20T11:32:09.331Z,100.00
2023-04-20T11:34:38.797Z,100.00
2023-04-20T11:37:07.987Z,100.00
2023-04-20T11:39:37.775Z,100.00
2023-04-20T11:42:06.651Z,100.00
2023-04-20T11:44:37.368Z,100.00
2023-04-20T11:47:06.420Z,100.00
2023-04-20T11:49:36.220Z,100.00
2023-04-20T11:52:05.565Z,100.00
2023-04-20T11:54:35.396Z,100.00
2023-04-20T11:57:05.040Z,100.00
2023-04-20T11:59:34.759Z,100.00
2023-04-20T12:02:04.878Z,100.00
2023-04-20T12:04:52.188Z,100.00
2023-04-20T12:07:22.231Z,100.00
2023-04-20T12:09:50.898Z,100.00
2023-04-20T12:12:19.588Z,99.88
2023-04-20T12:14:48.211Z,99.08
2023-04-20T12:17:17.154Z,99.10
2023-04-20T12:19:45.897Z,98.51
2023-04-20T12:22:14.550Z,97.31
2023-04-20T12:24:43.345Z,97.83
2023-04-20T12:27:11.997Z,97.71
2023-04-20T12:29:59.538Z,96.27
2023-04-20T12:32:28.477Z,95.52
2023-04-20T12:34:57.321Z,94.41
2023-04-20T12:37:25.983Z,94.63
2023-04-20T12:39:54.683Z,94.28
2023-04-20T12:42:23.369Z,94.85
2023-04-20T12:44:54.948Z,94.58
2023-04-20T12:47:24.160Z,92.87
2023-04-20T12:49:52.831Z,91.80
2023-04-20T12:52:39.920Z,91.97
2023-04-20T12:55:08.846Z,92.13
2023-04-20T12:57:37.536Z,92.39
2023-04-20T13:00:25.247Z,92.90
2023-04-20T13:02:54.524Z,92.07
2023-04-20T13:05:23.523Z,92.93
2023-04-20T13:07:52.433Z,91.98
2023-04-20T13:10:39.811Z,91.38
2023-04-20T13:13:30.024Z,91.63
2023-04-20T13:15:58.873Z,86.12
2023-04-20T13:18:27.683Z,86.21
2023-04-20T13:21:15.223Z,85.16
2023-04-20T13:23:43.784Z,83.98
2023-04-20T13:26:12.428Z,81.10
2023-04-20T13:28:41.648Z,80.92
2023-04-20T13:31:10.283Z,81.11
2023-04-20T13:33:59.069Z,81.72
2023-04-20T13:36:28.635Z,81.22
2023-04-20T13:39:16.424Z,82.35
2023-04-20T13:41:45.297Z,83.19
2023-04-20T13:44:31.502Z,84.31
2023-04-20T13:47:00.187Z,85.10
2023-04-20T13:49:28.973Z,86.14
2023-04-20T13:52:16.602Z,86.08
2023-04-20T13:54:45.346Z,84.93
2023-04-20T13:57:13.948Z,84.97
2023-04-20T13:59:42.859Z,83.84
2023-04-20T14:02:12.235Z,83.25
2023-04-20T14:04:59.634Z,82.51
2023-04-20T14:07:28.354Z,81.33
2023-04-20T14:10:00.122Z,79.44
2023-04-20T14:12:30.174Z,78.60
2023-04-20T14:15:17.783Z,77.81
2023-04-20T14:17:46.617Z,77.40
2023-04-20T14:20:15.292Z,77.40
2023-04-20T14:23:02.642Z,77.69
2023-04-20T14:25:33.070Z,76.90
2023-04-20T14:28:02.092Z,77.04
2023-04-20T14:30:31.072Z,77.91
2023-04-20T14:33:18.639Z,77.33
2023-04-20T14:35:47.702Z,77.61
2023-04-20T14:38:16.505Z,78.64
2023-04-20T14:40:45.160Z,78.98
2023-04-20T14:43:13.844Z,79.24
2023-04-20T14:45:44.958Z,79.48
2023-04-20T14:48:13.808Z,80.52
2023-04-20T14:50:59.749Z,80.30
2023-04-20T14:53:30.554Z,80.73
2023-04-20T14:56:00.429Z,81.25
2023-04-20T14:58:48.359Z,81.07
2023-04-20T15:01:17.670Z,81.09
2023-04-20T15:03:46.608Z,81.12
2023-04-20T15:06:15.564Z,81.41
2023-04-20T15:08:44.249Z,82.09
2023-04-20T15:11:12.813Z,81.76
2023-04-20T15:13:42.762Z,81.79
2023-04-20T15:16:28.524Z,82.80
2023-04-20T15:18:57.376Z,83.07
2023-04-20T15:27:17.609Z,84.53
2023-04-20T15:30:03.550Z,83.82
2023-04-20T15:32:51.570Z,83.24
2023-04-20T15:35:20.377Z,82.57
2023-04-20T15:38:07.975Z,82.39
2023-04-20T15:40:36.624Z,82.45
2023-04-20T15:48:57.407Z,83.62
2023-04-20T15:51:44.706Z,83.81
2023-04-20T15:54:32.691Z,84.18
2023-04-20T15:57:01.969Z,84.29
2023-04-20T15:59:49.449Z,84.72
2023-04-20T16:02:37.017Z,84.86
2023-04-20T16:05:09.786Z,84.58
2023-04-20T16:07:38.580Z,85.59
2023-04-20T16:10:08.271Z,85.89
2023-04-20T16:12:37.807Z,86.50
2023-04-20T16:15:06.964Z,86.68
2023-04-20T16:17:35.875Z,87.20
2023-04-20T16:20:23.910Z,88.09
2023-04-20T16:22:52.749Z,88.25
2023-04-20T16:25:24.394Z,88.17
2023-04-20T16:28:11.800Z,88.47
2023-04-20T16:30:40.395Z,89.43
2023-04-20T16:33:27.866Z,89.54
2023-04-20T16:35:56.549Z,90.27
2023-04-20T16:38:25.311Z,90.86
2023-04-20T16:40:54.183Z,91.24
2023-04-20T16:43:23.237Z,91.45
2023-04-20T16:45:51.904Z,92.37
2023-04-20T16:48:20.572Z,93.07
2023-04-20T16:51:08.038Z,94.75
2023-04-20T16:53:37.209Z,96.23
2023-04-20T16:56:06.069Z,96.68
2023-04-20T16:58:34.947Z,97.39
2023-04-20T17:01:04.092Z,97.77
2023-04-20T17:03:49.922Z,97.35
2023-04-20T17:06:37.392Z,96.79
2023-04-20T17:09:07.382Z,96.71
2023-04-20T17:11:36.339Z,96.57
2023-04-20T17:14:04.879Z,96.78
2023-04-20T17:16:34.144Z,96.44
2023-04-20T17:19:03.002Z,96.02
2023-04-20T17:21:32.092Z,95.77
2023-04-20T17:24:00.824Z,95.51
2023-04-20T17:26:48.636Z,95.84
2023-04-20T17:29:17.391Z,95.51
2023-04-20T17:31:47.226Z,95.45
2023-04-20T17:34:16.369Z,95.88
2023-04-20T17:37:03.587Z,95.82
2023-04-20T17:39:32.402Z,95.70
2023-04-20T17:42:01.832Z,95.98
2023-04-20T17:44:30.475Z,95.91
2023-04-20T17:47:17.547Z,96.02
2023-04-20T17:49:46.129Z,95.93
2023-04-20T17:52:19.695Z,95.50
2023-04-20T17:54:48.412Z,95.75
2023-04-20T17:57:17.221Z,95.69
2023-04-20T17:59:46.500Z,95.62
2023-04-20T18:02:34.370Z,95.43
2023-04-20T18:05:22.227Z,95.36
2023-04-20T18:07:50.999Z,95.12
2023-04-20T18:10:19.853Z,95.21
2023-04-20T18:12:48.561Z,94.93
2023-04-20T18:15:17.225Z,94.70
2023-04-20T18:17:46.243Z,94.32
2023-04-20T18:20:15.086Z,94.41
2023-04-20T18:22:43.929Z,94.37
2023-04-20T18:25:31.337Z,94.61
2023-04-20T18:28:00.405Z,94.46
2023-04-20T18:30:29.436Z,94.49
2023-04-20T18:33:16.948Z,94.10
2023-04-20T18:36:05.838Z,93.76
2023-04-20T18:38:35.643Z,93.60
2023-04-20T18:41:04.246Z,94.31
2023-04-20T18:43:53.541Z,94.54
2023-04-20T18:46:41.376Z,94.51
2023-04-20T18:49:10.610Z,94.41
2023-04-20T18:51:39.524Z,94.22
2023-04-20T19:00:00.208Z,94.86
2023-04-20T19:02:47.851Z,94.66
2023-04-20T19:05:17.731Z,95.01
2023-04-20T19:07:47.466Z,95.28
2023-04-20T19:10:18.347Z,95.28
2023-04-20T19:13:06.040Z,95.58
2023-04-20T19:15:35.725Z,95.67
2023-04-20T19:18:04.824Z,95.67
2023-04-20T19:20:53.034Z,95.75
2023-04-20T19:23:42.119Z,95.72
2023-04-20T19:26:10.866Z,96.43
2023-04-20T19:28:39.887Z,96.68
2023-04-20T19:31:33.759Z,96.25
2023-04-20T19:36:49.703Z,96.25
2023-04-20T19:42:04.969Z,97.45
2023-04-20T19:44:54.661Z,97.54
2023-04-20T19:47:23.963Z,97.68
2023-04-20T19:49:52.696Z,97.52
2023-04-20T19:55:07.858Z,97.87
2023-04-20T19:57:36.942Z,98.57
2023-04-20T20:00:23.160Z,98.40
2023-04-20T20:02:52.485Z,98.62
2023-04-20T20:05:21.299Z,99.03
2023-04-20T20:07:50.087Z,99.77
2023-04-20T20:10:18.670Z,99.70
2023-04-20T20:12:47.646Z,99.99
2023-04-20T20:15:16.521Z,100.00
2023-04-20T20:17:47.044Z,100.00
2023-04-20T20:20:19.399Z,100.00
2023-04-20T20:22:50.130Z,100.00
2023-04-20T20:25:22.460Z,100.00
2023-04-20T20:27:51.441Z,100.00
2023-04-20T20:30:20.105Z,100.00
2023-04-20T20:32:48.949Z,100.00
2023-04-20T20:35:17.876Z,100.00
2023-04-20T20:37:46.915Z,100.00
2023-04-20T20:40:16.021Z,100.00
2023-04-20T20:42:45.587Z,100.00
2023-04-20T20:45:14.480Z,100.00
2023-04-20T20:47:44.623Z,100.00
2023-04-20T20:50:13.992Z,100.00
2023-04-20T20:52:44.519Z,100.00
2023-04-20T20:55:13.353Z,100.00
2023-04-20T20:57:44.728Z,100.00
2023-04-20T21:00:14.417Z,100.00
2023-04-20T21:02:43.406Z,100.00
2023-04-20T21:05:12.298Z,100.00
2023-04-20T21:07:41.828Z,100.00
2023-04-20T21:10:13.666Z,100.00
2023-04-20T21:12:43.839Z,100.00
2023-04-20T21:15:13.642Z,100.00
2023-04-20T21:17:42.645Z,100.00
2023-04-20T21:20:11.979Z,100.00
2023-04-20T21:22:41.631Z,100.00
2023-04-20T21:25:10.479Z,100.00
2023-04-20T21:27:39.856Z,100.00
2023-04-20T21:30:08.742Z,100.00
2023-04-20T21:32:38.116Z,100.00
2023-04-20T21:35:07.114Z,100.00
2023-04-20T21:37:36.821Z,100.00
2023-04-20T21:40:06.170Z,100.00
2023-04-20T21:42:35.095Z,100.00
2023-04-20T21:45:04.138Z,100.00
2023-04-20T21:47:33.245Z,100.00
2023-04-20T21:50:02.163Z,100.00
2023-04-20T21:52:31.311Z,100.00
2023-04-20T21:55:00.157Z,100.00
2023-04-20T21:57:29.280Z,100.00
2023-04-20T21:59:58.102Z,100.00
2023-04-20T22:02:27.178Z,100.00
2023-04-20T22:04:56.498Z,100.00
2023-04-20T22:07:27.910Z,100.00
2023-04-20T22:09:56.806Z,100.00
2023-04-20T22:12:38.300Z,100.00
2023-04-20T22:15:11.931Z,100.00
2023-04-20T22:17:41.557Z,100.00
2023-04-20T22:20:10.924Z,100.00
2023-04-20T22:22:42.037Z,100.00
2023-04-20T22:25:12.388Z,100.00
2023-04-20T22:27:41.234Z,100.00
2023-04-20T22:30:11.911Z,100.00
2023-04-20T22:32:41.532Z,100.00
2023-04-20T22:35:10.552Z,100.00
2023-04-20T22:37:39.641Z,100.00
2023-04-20T22:40:10.245Z,100.00
2023-04-20T22:42:40.614Z,100.00
2023-04-20T22:45:12.610Z,100.00
2023-04-20T22:47:42.522Z,100.00
2023-04-20T22:50:12.792Z,100.00
2023-04-20T22:52:42.265Z,100.00
2023-04-20T22:55:12.554Z,100.00
2023-04-20T22:57:41.348Z,100.00
2023-04-20T23:00:14.271Z,100.00
2023-04-20T23:02:44.191Z,100.00
2023-04-20T23:05:12.954Z,100.00
2023-04-20T23:07:45.736Z,100.00
2023-04-20T23:10:17.110Z,100.00
2023-04-20T23:12:47.383Z,100.00
2023-04-20T23:15:16.470Z,100.00
2023-04-20T23:17:45.238Z,100.00
2023-04-20T23:20:14.314Z,100.00
2023-04-20T23:22:43.360Z,100.00
2023-04-20T23:25:12.172Z,100.00
2023-04-20T23:27:41.293Z,100.00
2023-04-20T23:30:10.475Z,100.00
2023-04-20T23:32:39.949Z,100.00
2023-04-20T23:35:09.830Z,100.00
2023-04-20T23:37:38.823Z,100.00
2023-04-20T23:40:08.987Z,100.00
2023-04-20T23:42:38.218Z,100.00
2023-04-20T23:45:07.330Z,100.00
2023-04-20T23:47:36.022Z,100.00
2023-04-20T23:50:05.245Z,100.00
2023-04-20T23:52:34.470Z,100.00
2023-04-20T23:55:03.254Z,100.00
2023-04-20T23:57:32.356Z,100.00
